sensor_id;sensor_type;location;lat;lon;timestamp;pressure;altitude;pressure_sealevel;temperature;humidity
79136;BME280;68533;51.090;17.216;2023-07-09T00:01:47;100551.72;;;13.68;88.06
79136;BME280;68533;51.090;17.216;2023-07-09T00:04:13;100550.31;;;13.51;88.96
79136;BME280;68533;51.090;17.216;2023-07-09T00:06:40;100553.22;;;13.41;89.47
79136;BME280;68533;51.090;17.216;2023-07-09T00:09:20;100555.41;;;13.26;90.22
79136;BME280;68533;51.090;17.216;2023-07-09T00:11:47;100558.03;;;13.17;90.19
79136;BME280;68533;51.090;17.216;2023-07-09T00:14:15;100552.91;;;13.05;90.09
79136;BME280;68533;51.090;17.216;2023-07-09T00:16:43;100557.97;;;12.98;90.95
79136;BME280;68533;51.090;17.216;2023-07-09T00:19:12;100552.44;;;12.98;89.96
79136;BME280;68533;51.090;17.216;2023-07-09T00:21:39;100555.44;;;13.02;89.58
79136;BME280;68533;51.090;17.216;2023-07-09T00:24:07;100555.81;;;12.95;90.87
79136;BME280;68533;51.090;17.216;2023-07-09T00:26:33;100556.22;;;12.83;91.00
79136;BME280;68533;51.090;17.216;2023-07-09T00:28:59;100561.50;;;13.04;89.67
79136;BME280;68533;51.090;17.216;2023-07-09T00:31:26;100562.00;;;13.06;89.56
79136;BME280;68533;51.090;17.216;2023-07-09T00:33:52;100557.50;;;12.91;90.40
79136;BME280;68533;51.090;17.216;2023-07-09T00:36:29;100562.22;;;12.91;90.37
79136;BME280;68533;51.090;17.216;2023-07-09T00:38:57;100558.50;;;12.81;90.76
79136;BME280;68533;51.090;17.216;2023-07-09T00:41:35;100551.72;;;12.69;91.80
79136;BME280;68533;51.090;17.216;2023-07-09T00:44:23;100552.81;;;12.92;90.55
79136;BME280;68533;51.090;17.216;2023-07-09T00:49:37;100557.13;;;12.79;91.65
79136;BME280;68533;51.090;17.216;2023-07-09T00:52:37;100556.38;;;12.73;91.69
79136;BME280;68533;51.090;17.216;2023-07-09T00:55:08;100557.88;;;12.84;90.50
79136;BME280;68533;51.090;17.216;2023-07-09T00:57:38;100553.31;;;12.75;91.22
79136;BME280;68533;51.090;17.216;2023-07-09T01:00:10;100552.59;;;12.88;91.39
79136;BME280;68533;51.090;17.216;2023-07-09T01:02:44;100551.19;;;13.09;88.90
79136;BME280;68533;51.090;17.216;2023-07-09T01:05:12;100546.66;;;12.76;90.17
79136;BME280;68533;51.090;17.216;2023-07-09T01:07:41;100551.97;;;12.72;89.86
79136;BME280;68533;51.090;17.216;2023-07-09T01:10:12;100550.88;;;12.73;90.29
79136;BME280;68533;51.090;17.216;2023-07-09T01:12:40;100556.13;;;12.70;90.05
79136;BME280;68533;51.090;17.216;2023-07-09T01:15:06;100555.28;;;12.51;89.78
79136;BME280;68533;51.090;17.216;2023-07-09T01:17:33;100558.38;;;12.44;90.68
79136;BME280;68533;51.090;17.216;2023-07-09T01:19:59;100553.50;;;12.36;90.81
79136;BME280;68533;51.090;17.216;2023-07-09T01:22:26;100556.91;;;12.28;90.55
79136;BME280;68533;51.090;17.216;2023-07-09T01:25:00;100556.28;;;12.36;91.77
79136;BME280;68533;51.090;17.216;2023-07-09T01:27:39;100549.22;;;12.49;91.23
79136;BME280;68533;51.090;17.216;2023-07-09T01:30:09;100555.78;;;12.53;91.84
79136;BME280;68533;51.090;17.216;2023-07-09T01:32:37;100557.22;;;12.50;90.98
79136;BME280;68533;51.090;17.216;2023-07-09T01:35:05;100559.22;;;12.44;91.05
79136;BME280;68533;51.090;17.216;2023-07-09T01:37:36;100557.19;;;12.26;91.97
79136;BME280;68533;51.090;17.216;2023-07-09T01:40:04;100549.75;;;12.27;91.54
79136;BME280;68533;51.090;17.216;2023-07-09T01:42:31;100557.44;;;12.30;91.81
79136;BME280;68533;51.090;17.216;2023-07-09T01:44:57;100554.84;;;12.15;92.09
79136;BME280;68533;51.090;17.216;2023-07-09T01:47:24;100551.06;;;12.05;93.14
79136;BME280;68533;51.090;17.216;2023-07-09T01:49:51;100549.34;;;12.15;92.80
79136;BME280;68533;51.090;17.216;2023-07-09T01:52:25;100554.78;;;12.20;92.21
79136;BME280;68533;51.090;17.216;2023-07-09T01:54:52;100555.13;;;12.13;91.31
79136;BME280;68533;51.090;17.216;2023-07-09T01:57:24;100554.06;;;12.09;92.78
79136;BME280;68533;51.090;17.216;2023-07-09T01:59:51;100552.13;;;12.10;93.05
79136;BME280;68533;51.090;17.216;2023-07-09T02:02:19;100552.75;;;12.01;92.50
79136;BME280;68533;51.090;17.216;2023-07-09T02:04:49;100550.00;;;12.01;93.42
79136;BME280;68533;51.090;17.216;2023-07-09T02:07:16;100549.91;;;12.12;92.51
79136;BME280;68533;51.090;17.216;2023-07-09T02:09:42;100559.88;;;12.08;92.24
79136;BME280;68533;51.090;17.216;2023-07-09T02:12:09;100555.22;;;12.03;91.60
79136;BME280;68533;51.090;17.216;2023-07-09T02:14:36;100556.94;;;11.99;91.60
79136;BME280;68533;51.090;17.216;2023-07-09T02:17:02;100560.53;;;11.94;92.54
79136;BME280;68533;51.090;17.216;2023-07-09T02:19:29;100555.84;;;11.95;93.53
79136;BME280;68533;51.090;17.216;2023-07-09T02:21:56;100575.53;;;11.83;93.87
79136;BME280;68533;51.090;17.216;2023-07-09T02:24:22;100584.91;;;11.82;94.24
79136;BME280;68533;51.090;17.216;2023-07-09T02:26:51;100578.78;;;11.90;93.89
79136;BME280;68533;51.090;17.216;2023-07-09T02:29:17;100571.47;;;12.04;93.07
79136;BME280;68533;51.090;17.216;2023-07-09T02:31:45;100572.03;;;12.01;93.32
79136;BME280;68533;51.090;17.216;2023-07-09T02:34:11;100565.91;;;11.81;93.85
79136;BME280;68533;51.090;17.216;2023-07-09T02:36:37;100574.44;;;11.84;92.80
79136;BME280;68533;51.090;17.216;2023-07-09T02:39:12;100566.38;;;11.88;92.69
79136;BME280;68533;51.090;17.216;2023-07-09T02:41:41;100570.03;;;11.83;93.14
79136;BME280;68533;51.090;17.216;2023-07-09T02:44:08;100579.88;;;11.89;93.58
79136;BME280;68533;51.090;17.216;2023-07-09T02:46:35;100579.34;;;11.87;93.08
79136;BME280;68533;51.090;17.216;2023-07-09T02:49:03;100589.34;;;11.78;93.27
79136;BME280;68533;51.090;17.216;2023-07-09T02:51:30;100592.38;;;11.72;93.92
79136;BME280;68533;51.090;17.216;2023-07-09T02:53:57;100590.84;;;11.60;94.37
79136;BME280;68533;51.090;17.216;2023-07-09T02:56:23;100591.81;;;11.41;94.24
79136;BME280;68533;51.090;17.216;2023-07-09T02:58:50;100582.47;;;11.37;95.03
79136;BME280;68533;51.090;17.216;2023-07-09T03:01:17;100577.72;;;11.47;94.12
79136;BME280;68533;51.090;17.216;2023-07-09T03:03:43;100576.78;;;11.62;92.73
79136;BME280;68533;51.090;17.216;2023-07-09T03:06:09;100583.34;;;11.66;92.66
79136;BME280;68533;51.090;17.216;2023-07-09T03:08:35;100584.44;;;11.65;94.00
79136;BME280;68533;51.090;17.216;2023-07-09T03:11:12;100578.94;;;11.65;94.71
79136;BME280;68533;51.090;17.216;2023-07-09T03:13:38;100590.16;;;11.79;93.25
79136;BME280;68533;51.090;17.216;2023-07-09T03:16:04;100600.53;;;11.92;93.55
79136;BME280;68533;51.090;17.216;2023-07-09T03:18:31;100595.38;;;11.80;94.21
79136;BME280;68533;51.090;17.216;2023-07-09T03:20:58;100593.81;;;11.64;94.59
79136;BME280;68533;51.090;17.216;2023-07-09T03:23:24;100590.56;;;11.96;93.25
79136;BME280;68533;51.090;17.216;2023-07-09T03:25:50;100589.06;;;12.09;93.52
79136;BME280;68533;51.090;17.216;2023-07-09T03:28:16;100604.88;;;12.27;93.52
79136;BME280;68533;51.090;17.216;2023-07-09T03:30:44;100600.13;;;12.32;93.40
79136;BME280;68533;51.090;17.216;2023-07-09T03:33:12;100593.16;;;12.40;92.45
79136;BME280;68533;51.090;17.216;2023-07-09T03:35:39;100592.06;;;12.65;90.82
79136;BME280;68533;51.090;17.216;2023-07-09T03:38:06;100590.06;;;12.70;90.28
79136;BME280;68533;51.090;17.216;2023-07-09T03:40:32;100584.38;;;12.86;89.42
79136;BME280;68533;51.090;17.216;2023-07-09T03:42:59;100577.28;;;12.98;88.18
79136;BME280;68533;51.090;17.216;2023-07-09T03:45:25;100597.91;;;13.06;90.23
79136;BME280;68533;51.090;17.216;2023-07-09T03:47:51;100582.63;;;13.13;89.68
79136;BME280;68533;51.090;17.216;2023-07-09T03:50:18;100577.13;;;12.90;91.68
79136;BME280;68533;51.090;17.216;2023-07-09T03:52:44;100579.22;;;12.98;89.94
79136;BME280;68533;51.090;17.216;2023-07-09T03:55:10;100585.09;;;13.15;89.91
79136;BME280;68533;51.090;17.216;2023-07-09T03:57:36;100587.28;;;13.18;89.97
79136;BME280;68533;51.090;17.216;2023-07-09T04:00:03;100589.84;;;13.33;89.82
79136;BME280;68533;51.090;17.216;2023-07-09T04:02:31;100611.47;;;13.45;90.58
79136;BME280;68533;51.090;17.216;2023-07-09T04:04:57;100597.19;;;13.56;89.94
79136;BME280;68533;51.090;17.216;2023-07-09T04:07:24;100599.91;;;13.62;89.18
79136;BME280;68533;51.090;17.216;2023-07-09T04:09:50;100588.38;;;13.73;87.38
79136;BME280;68533;51.090;17.216;2023-07-09T04:12:16;100591.56;;;13.80;88.23
79136;BME280;68533;51.090;17.216;2023-07-09T04:14:43;100595.16;;;14.13;87.51
79136;BME280;68533;51.090;17.216;2023-07-09T04:17:08;100612.00;;;14.30;87.44
79136;BME280;68533;51.090;17.216;2023-07-09T04:19:35;100609.38;;;14.39;87.43
79136;BME280;68533;51.090;17.216;2023-07-09T04:22:00;100611.75;;;14.46;87.09
79136;BME280;68533;51.090;17.216;2023-07-09T04:24:27;100611.84;;;14.54;86.84
79136;BME280;68533;51.090;17.216;2023-07-09T04:26:53;100610.31;;;14.62;85.57
79136;BME280;68533;51.090;17.216;2023-07-09T04:29:23;100632.59;;;14.84;88.44
79136;BME280;68533;51.090;17.216;2023-07-09T04:31:49;100622.63;;;14.97;86.76
79136;BME280;68533;51.090;17.216;2023-07-09T04:34:15;100627.25;;;15.15;85.29
79136;BME280;68533;51.090;17.216;2023-07-09T04:36:40;100614.31;;;15.24;86.62
79136;BME280;68533;51.090;17.216;2023-07-09T04:39:07;100606.72;;;15.16;85.71
79136;BME280;68533;51.090;17.216;2023-07-09T04:41:33;100609.13;;;15.45;84.51
79136;BME280;68533;51.090;17.216;2023-07-09T04:43:59;100624.06;;;15.93;84.75
79136;BME280;68533;51.090;17.216;2023-07-09T04:46:25;100615.16;;;16.27;81.26
79136;BME280;68533;51.090;17.216;2023-07-09T04:48:51;100620.03;;;16.53;79.19
79136;BME280;68533;51.090;17.216;2023-07-09T04:51:17;100624.56;;;16.71;78.51
79136;BME280;68533;51.090;17.216;2023-07-09T04:53:44;100631.63;;;17.34;77.78
79136;BME280;68533;51.090;17.216;2023-07-09T04:56:09;100632.50;;;17.86;76.05
79136;BME280;68533;51.090;17.216;2023-07-09T04:58:36;100651.13;;;18.29;74.63
79136;BME280;68533;51.090;17.216;2023-07-09T05:01:02;100653.72;;;18.51;73.32
79136;BME280;68533;51.090;17.216;2023-07-09T05:03:28;100647.03;;;18.35;72.15
79136;BME280;68533;51.090;17.216;2023-07-09T05:05:54;100633.31;;;18.12;72.07
79136;BME280;68533;51.090;17.216;2023-07-09T05:08:20;100641.16;;;18.19;72.43
79136;BME280;68533;51.090;17.216;2023-07-09T05:10:50;100639.88;;;18.08;73.93
79136;BME280;68533;51.090;17.216;2023-07-09T05:13:18;100651.72;;;18.69;74.77
79136;BME280;68533;51.090;17.216;2023-07-09T05:15:46;100642.53;;;19.06;69.07
79136;BME280;68533;51.090;17.216;2023-07-09T05:18:14;100644.38;;;19.31;71.30
79136;BME280;68533;51.090;17.216;2023-07-09T05:20:41;100645.72;;;19.55;68.13
79136;BME280;68533;51.090;17.216;2023-07-09T05:23:11;100642.03;;;20.04;66.00
79136;BME280;68533;51.090;17.216;2023-07-09T05:25:37;100651.34;;;20.29;66.56
79136;BME280;68533;51.090;17.216;2023-07-09T05:28:04;100648.19;;;20.31;65.60
79136;BME280;68533;51.090;17.216;2023-07-09T05:30:31;100642.84;;;20.71;65.59
79136;BME280;68533;51.090;17.216;2023-07-09T05:32:57;100642.59;;;20.51;64.57
79136;BME280;68533;51.090;17.216;2023-07-09T05:35:26;100650.81;;;20.81;65.48
79136;BME280;68533;51.090;17.216;2023-07-09T05:37:53;100658.06;;;20.61;66.66
79136;BME280;68533;51.090;17.216;2023-07-09T05:40:19;100656.03;;;20.95;65.03
79136;BME280;68533;51.090;17.216;2023-07-09T05:42:45;100652.00;;;20.47;65.42
79136;BME280;68533;51.090;17.216;2023-07-09T05:45:11;100651.50;;;21.14;63.85
79136;BME280;68533;51.090;17.216;2023-07-09T05:47:37;100651.97;;;20.92;66.64
79136;BME280;68533;51.090;17.216;2023-07-09T05:50:04;100647.75;;;20.98;66.34
79136;BME280;68533;51.090;17.216;2023-07-09T05:52:30;100647.53;;;21.15;63.97
79136;BME280;68533;51.090;17.216;2023-07-09T05:54:56;100649.63;;;21.67;63.49
79136;BME280;68533;51.090;17.216;2023-07-09T05:57:22;100645.91;;;22.03;62.83
79136;BME280;68533;51.090;17.216;2023-07-09T05:59:48;100646.41;;;21.93;62.34
79136;BME280;68533;51.090;17.216;2023-07-09T06:02:18;100645.06;;;22.15;63.74
79136;BME280;68533;51.090;17.216;2023-07-09T06:04:44;100640.97;;;22.40;60.19
79136;BME280;68533;51.090;17.216;2023-07-09T06:07:12;100649.94;;;22.89;59.53
79136;BME280;68533;51.090;17.216;2023-07-09T06:09:39;100650.34;;;22.75;58.72
79136;BME280;68533;51.090;17.216;2023-07-09T06:12:06;100647.25;;;23.28;59.26
79136;BME280;68533;51.090;17.216;2023-07-09T06:14:33;100653.75;;;23.47;56.59
79136;BME280;68533;51.090;17.216;2023-07-09T06:17:00;100653.66;;;23.59;56.80
79136;BME280;68533;51.090;17.216;2023-07-09T06:19:26;100644.75;;;23.22;57.23
79136;BME280;68533;51.090;17.216;2023-07-09T06:21:52;100647.53;;;23.54;58.40
79136;BME280;68533;51.090;17.216;2023-07-09T06:24:18;100658.72;;;23.70;55.99
79136;BME280;68533;51.090;17.216;2023-07-09T06:26:45;100651.34;;;22.99;57.91
79136;BME280;68533;51.090;17.216;2023-07-09T06:29:10;100657.69;;;23.78;56.12
79136;BME280;68533;51.090;17.216;2023-07-09T06:31:37;100660.19;;;23.83;53.51
79136;BME280;68533;51.090;17.216;2023-07-09T06:34:03;100661.56;;;24.08;54.68
79136;BME280;68533;51.090;17.216;2023-07-09T06:36:30;100656.06;;;24.54;53.06
79136;BME280;68533;51.090;17.216;2023-07-09T06:39:04;100659.81;;;25.03;52.08
79136;BME280;68533;51.090;17.216;2023-07-09T06:41:35;100655.81;;;24.62;50.31
79136;BME280;68533;51.090;17.216;2023-07-09T06:44:08;100652.75;;;24.48;53.29
79136;BME280;68533;51.090;17.216;2023-07-09T06:46:35;100661.06;;;24.64;50.79
79136;BME280;68533;51.090;17.216;2023-07-09T06:49:02;100651.47;;;25.33;53.32
79136;BME280;68533;51.090;17.216;2023-07-09T06:51:28;100647.94;;;25.40;51.16
79136;BME280;68533;51.090;17.216;2023-07-09T06:53:54;100655.84;;;26.17;52.68
79136;BME280;68533;51.090;17.216;2023-07-09T06:56:22;100655.47;;;25.59;50.05
79136;BME280;68533;51.090;17.216;2023-07-09T06:58:48;100654.06;;;24.54;51.32
79136;BME280;68533;51.090;17.216;2023-07-09T07:01:15;100651.31;;;25.49;50.50
79136;BME280;68533;51.090;17.216;2023-07-09T07:03:42;100657.78;;;26.09;50.32
79136;BME280;68533;51.090;17.216;2023-07-09T07:06:08;100657.53;;;26.21;50.99
79136;BME280;68533;51.090;17.216;2023-07-09T07:08:35;100648.91;;;26.41;49.39
79136;BME280;68533;51.090;17.216;2023-07-09T07:11:03;100651.75;;;26.41;46.96
79136;BME280;68533;51.090;17.216;2023-07-09T07:13:32;100656.94;;;26.76;45.13
79136;BME280;68533;51.090;17.216;2023-07-09T07:15:59;100653.78;;;26.84;46.33
79136;BME280;68533;51.090;17.216;2023-07-09T07:18:25;100661.84;;;27.77;44.02
79136;BME280;68533;51.090;17.216;2023-07-09T07:20:51;100657.13;;;28.06;45.25
79136;BME280;68533;51.090;17.216;2023-07-09T07:23:18;100655.22;;;28.32;41.91
79136;BME280;68533;51.090;17.216;2023-07-09T07:25:45;100651.75;;;28.84;43.18
79136;BME280;68533;51.090;17.216;2023-07-09T07:28:11;100655.38;;;28.78;41.50
79136;BME280;68533;51.090;17.216;2023-07-09T07:30:37;100650.47;;;28.64;40.41
79136;BME280;68533;51.090;17.216;2023-07-09T07:33:04;100650.94;;;28.94;40.59
79136;BME280;68533;51.090;17.216;2023-07-09T07:35:30;100653.38;;;29.07;41.65
79136;BME280;68533;51.090;17.216;2023-07-09T07:37:56;100646.91;;;29.20;39.12
79136;BME280;68533;51.090;17.216;2023-07-09T07:40:22;100636.28;;;29.81;37.74
79136;BME280;68533;51.090;17.216;2023-07-09T07:42:48;100639.19;;;30.65;37.92
79136;BME280;68533;51.090;17.216;2023-07-09T07:45:15;100647.47;;;30.97;36.71
79136;BME280;68533;51.090;17.216;2023-07-09T07:47:41;100650.84;;;31.33;37.21
79136;BME280;68533;51.090;17.216;2023-07-09T07:50:08;100638.13;;;30.37;36.66
79136;BME280;68533;51.090;17.216;2023-07-09T07:52:34;100635.78;;;31.36;34.31
79136;BME280;68533;51.090;17.216;2023-07-09T07:55:07;100644.59;;;31.00;34.08
79136;BME280;68533;51.090;17.216;2023-07-09T07:57:34;100634.84;;;31.01;36.24
79136;BME280;68533;51.090;17.216;2023-07-09T08:00:00;100644.44;;;31.21;32.09
79136;BME280;68533;51.090;17.216;2023-07-09T08:02:26;100640.59;;;30.94;32.66
79136;BME280;68533;51.090;17.216;2023-07-09T08:04:53;100642.81;;;31.24;35.60
79136;BME280;68533;51.090;17.216;2023-07-09T08:07:19;100643.88;;;32.46;33.25
79136;BME280;68533;51.090;17.216;2023-07-09T08:09:46;100636.38;;;31.57;32.46
79136;BME280;68533;51.090;17.216;2023-07-09T08:12:13;100647.75;;;32.59;31.64
79136;BME280;68533;51.090;17.216;2023-07-09T08:14:41;100650.91;;;33.19;31.31
79136;BME280;68533;51.090;17.216;2023-07-09T08:17:08;100660.56;;;33.01;32.61
79136;BME280;68533;51.090;17.216;2023-07-09T08:19:49;100665.53;;;33.44;33.76
79136;BME280;68533;51.090;17.216;2023-07-09T08:22:16;100670.03;;;32.95;30.05
79136;BME280;68533;51.090;17.216;2023-07-09T08:24:42;100669.38;;;33.57;31.81
79136;BME280;68533;51.090;17.216;2023-07-09T08:27:09;100670.91;;;33.42;33.96
79136;BME280;68533;51.090;17.216;2023-07-09T08:29:35;100660.25;;;32.96;32.31
79136;BME280;68533;51.090;17.216;2023-07-09T08:32:03;100669.16;;;32.98;30.94
79136;BME280;68533;51.090;17.216;2023-07-09T08:34:29;100664.44;;;32.88;30.78
79136;BME280;68533;51.090;17.216;2023-07-09T08:36:55;100663.84;;;33.27;30.84
79136;BME280;68533;51.090;17.216;2023-07-09T08:39:21;100665.75;;;33.57;30.42
79136;BME280;68533;51.090;17.216;2023-07-09T08:42:06;100666.00;;;33.15;29.32
79136;BME280;68533;51.090;17.216;2023-07-09T08:45:20;100664.97;;;33.52;27.49
79136;BME280;68533;51.090;17.216;2023-07-09T08:52:40;100662.81;;;34.43;30.79
79136;BME280;68533;51.090;17.216;2023-07-09T08:55:11;100652.22;;;34.23;28.14
79136;BME280;68533;51.090;17.216;2023-07-09T08:57:43;100656.38;;;34.91;28.25
79136;BME280;68533;51.090;17.216;2023-07-09T09:00:15;100661.13;;;34.81;31.62
79136;BME280;68533;51.090;17.216;2023-07-09T09:05:20;100657.69;;;34.70;29.58
79136;BME280;68533;51.090;17.216;2023-07-09T09:07:51;100651.22;;;35.02;26.51
79136;BME280;68533;51.090;17.216;2023-07-09T09:10:33;100657.59;;;34.18;27.08
79136;BME280;68533;51.090;17.216;2023-07-09T09:13:11;100655.50;;;34.78;25.25
79136;BME280;68533;51.090;17.216;2023-07-09T09:15:43;100651.38;;;34.79;25.12
79136;BME280;68533;51.090;17.216;2023-07-09T09:18:26;100647.56;;;35.18;27.76
79136;BME280;68533;51.090;17.216;2023-07-09T09:21:10;100650.69;;;35.56;24.54
79136;BME280;68533;51.090;17.216;2023-07-09T09:23:52;100652.41;;;35.04;24.82
79136;BME280;68533;51.090;17.216;2023-07-09T09:26:27;100656.28;;;35.59;25.00
79136;BME280;68533;51.090;17.216;2023-07-09T09:28:54;100658.34;;;35.59;25.25
79136;BME280;68533;51.090;17.216;2023-07-09T09:31:21;100660.59;;;36.25;24.23
79136;BME280;68533;51.090;17.216;2023-07-09T09:33:48;100664.06;;;36.16;22.77
79136;BME280;68533;51.090;17.216;2023-07-09T09:36:25;100661.13;;;35.62;22.05
79136;BME280;68533;51.090;17.216;2023-07-09T09:38:52;100658.47;;;35.71;22.25
79136;BME280;68533;51.090;17.216;2023-07-09T09:41:21;100656.50;;;35.20;21.60
79136;BME280;68533;51.090;17.216;2023-07-09T09:43:48;100656.09;;;35.83;21.42
79136;BME280;68533;51.090;17.216;2023-07-09T09:46:25;100656.69;;;35.45;23.30
79136;BME280;68533;51.090;17.216;2023-07-09T09:48:59;100655.63;;;34.15;22.81
79136;BME280;68533;51.090;17.216;2023-07-09T09:51:26;100652.41;;;34.68;26.83
79136;BME280;68533;51.090;17.216;2023-07-09T09:54:00;100659.06;;;35.63;21.47
79136;BME280;68533;51.090;17.216;2023-07-09T09:56:35;100657.09;;;36.17;20.35
79136;BME280;68533;51.090;17.216;2023-07-09T09:59:03;100663.72;;;36.43;22.82
79136;BME280;68533;51.090;17.216;2023-07-09T10:01:33;100655.47;;;35.59;20.94
79136;BME280;68533;51.090;17.216;2023-07-09T10:04:01;100651.78;;;35.29;22.98
79136;BME280;68533;51.090;17.216;2023-07-09T10:12:11;100666.66;;;35.69;25.81
79136;BME280;68533;51.090;17.216;2023-07-09T10:18:10;100668.44;;;36.08;23.41
79136;BME280;68533;51.090;17.216;2023-07-09T10:20:18;100658.91;;;36.11;21.50
79136;BME280;68533;51.090;17.216;2023-07-09T10:23:10;100663.84;;;36.52;22.24
79136;BME280;68533;51.090;17.216;2023-07-09T10:32:11;100656.53;;;36.64;18.83
79136;BME280;68533;51.090;17.216;2023-07-09T10:39:42;100654.22;;;36.46;20.46
79136;BME280;68533;51.090;17.216;2023-07-09T10:42:20;100651.88;;;36.83;20.81
79136;BME280;68533;51.090;17.216;2023-07-09T10:44:54;100656.44;;;37.18;19.36
79136;BME280;68533;51.090;17.216;2023-07-09T10:47:35;100647.56;;;36.62;19.02
79136;BME280;68533;51.090;17.216;2023-07-09T10:50:05;100644.75;;;35.79;20.01
79136;BME280;68533;51.090;17.216;2023-07-09T10:52:37;100646.41;;;35.48;21.08
79136;BME280;68533;51.090;17.216;2023-07-09T10:55:33;100653.66;;;35.81;21.46
79136;BME280;68533;51.090;17.216;2023-07-09T10:58:10;100638.94;;;35.66;20.92
79136;BME280;68533;51.090;17.216;2023-07-09T11:00:42;100649.13;;;36.67;21.09
79136;BME280;68533;51.090;17.216;2023-07-09T11:03:16;100648.50;;;36.05;21.29
79136;BME280;68533;51.090;17.216;2023-07-09T11:05:45;100646.19;;;36.41;20.83
79136;BME280;68533;51.090;17.216;2023-07-09T11:08:38;100646.19;;;36.41;22.73
79136;BME280;68533;51.090;17.216;2023-07-09T11:11:36;100651.69;;;36.48;24.26
79136;BME280;68533;51.090;17.216;2023-07-09T11:14:04;100643.72;;;35.57;19.83
79136;BME280;68533;51.090;17.216;2023-07-09T11:16:39;100639.72;;;36.79;21.99
79136;BME280;68533;51.090;17.216;2023-07-09T11:19:14;100634.91;;;36.09;21.29
79136;BME280;68533;51.090;17.216;2023-07-09T11:21:58;100639.94;;;36.97;21.26
79136;BME280;68533;51.090;17.216;2023-07-09T11:25:03;100632.91;;;36.35;19.03
79136;BME280;68533;51.090;17.216;2023-07-09T11:27:26;100643.78;;;36.40;22.63
79136;BME280;68533;51.090;17.216;2023-07-09T11:30:15;100645.28;;;36.44;19.76
79136;BME280;68533;51.090;17.216;2023-07-09T11:32:47;100633.88;;;36.15;18.72
79136;BME280;68533;51.090;17.216;2023-07-09T11:35:28;100622.78;;;35.89;18.46
79136;BME280;68533;51.090;17.216;2023-07-09T11:37:56;100629.25;;;36.05;21.18
79136;BME280;68533;51.090;17.216;2023-07-09T11:40:24;100625.94;;;35.49;22.82
79136;BME280;68533;51.090;17.216;2023-07-09T11:42:58;100631.06;;;36.28;21.07
79136;BME280;68533;51.090;17.216;2023-07-09T11:45:31;100626.06;;;36.70;19.65
79136;BME280;68533;51.090;17.216;2023-07-09T11:48:23;100630.75;;;37.02;19.70
79136;BME280;68533;51.090;17.216;2023-07-09T11:50:51;100624.91;;;36.93;21.06
79136;BME280;68533;51.090;17.216;2023-07-09T11:55:50;100615.50;;;36.42;21.92
79136;BME280;68533;51.090;17.216;2023-07-09T11:58:18;100615.00;;;35.76;20.12
79136;BME280;68533;51.090;17.216;2023-07-09T12:00:50;100615.00;;;35.60;21.52
79136;BME280;68533;51.090;17.216;2023-07-09T12:03:28;100604.28;;;35.64;17.88
79136;BME280;68533;51.090;17.216;2023-07-09T12:06:00;100609.75;;;35.88;21.33
79136;BME280;68533;51.090;17.216;2023-07-09T12:08:30;100603.94;;;36.04;21.34
79136;BME280;68533;51.090;17.216;2023-07-09T12:10:58;100597.41;;;36.70;20.49
79136;BME280;68533;51.090;17.216;2023-07-09T12:13:24;100607.97;;;36.73;20.38
79136;BME280;68533;51.090;17.216;2023-07-09T12:15:50;100607.03;;;36.76;21.55
79136;BME280;68533;51.090;17.216;2023-07-09T12:18:17;100597.47;;;36.16;20.32
79136;BME280;68533;51.090;17.216;2023-07-09T12:20:52;100586.53;;;36.78;20.62
79136;BME280;68533;51.090;17.216;2023-07-09T12:23:23;100588.09;;;37.04;19.69
79136;BME280;68533;51.090;17.216;2023-07-09T12:25:51;100597.25;;;37.12;19.19
79136;BME280;68533;51.090;17.216;2023-07-09T12:28:18;100592.69;;;36.64;20.55
79136;BME280;68533;51.090;17.216;2023-07-09T12:30:49;100593.19;;;36.75;20.23
79136;BME280;68533;51.090;17.216;2023-07-09T12:33:22;100590.03;;;37.07;18.87
79136;BME280;68533;51.090;17.216;2023-07-09T12:36:09;100590.13;;;35.73;21.26
79136;BME280;68533;51.090;17.216;2023-07-09T12:38:44;100591.88;;;35.71;20.64
79136;BME280;68533;51.090;17.216;2023-07-09T12:41:23;100587.50;;;35.50;18.71
79136;BME280;68533;51.090;17.216;2023-07-09T12:43:55;100569.00;;;34.77;19.04
79136;BME280;68533;51.090;17.216;2023-07-09T12:46:22;100575.41;;;35.30;21.44
79136;BME280;68533;51.090;17.216;2023-07-09T12:48:49;100572.31;;;35.53;19.62
79136;BME280;68533;51.090;17.216;2023-07-09T12:51:23;100569.56;;;35.50;19.81
79136;BME280;68533;51.090;17.216;2023-07-09T12:54:14;100564.63;;;36.21;20.64
79136;BME280;68533;51.090;17.216;2023-07-09T12:56:41;100576.59;;;36.03;21.36
79136;BME280;68533;51.090;17.216;2023-07-09T12:59:19;100572.91;;;35.61;23.21
79136;BME280;68533;51.090;17.216;2023-07-09T13:01:59;100568.66;;;36.74;20.22
79136;BME280;68533;51.090;17.216;2023-07-09T13:04:34;100564.06;;;35.71;21.16
79136;BME280;68533;51.090;17.216;2023-07-09T13:07:03;100559.47;;;36.53;20.07
79136;BME280;68533;51.090;17.216;2023-07-09T13:09:30;100566.22;;;36.85;21.22
79136;BME280;68533;51.090;17.216;2023-07-09T13:11:57;100563.03;;;36.20;19.08
79136;BME280;68533;51.090;17.216;2023-07-09T13:14:29;100560.25;;;36.16;20.31
79136;BME280;68533;51.090;17.216;2023-07-09T13:17:04;100559.97;;;35.56;18.90
79136;BME280;68533;51.090;17.216;2023-07-09T13:19:30;100558.09;;;35.04;22.26
79136;BME280;68533;51.090;17.216;2023-07-09T13:21:56;100559.38;;;34.87;21.87
79136;BME280;68533;51.090;17.216;2023-07-09T13:24:24;100547.63;;;35.14;22.59
79136;BME280;68533;51.090;17.216;2023-07-09T13:26:51;100552.28;;;35.82;21.53